sensor_id;sensor_type;location;lat;lon;timestamp;pressure;altitude;pressure_sealevel;temperature;humidity
13312;BME280;34033;48.672;9.376;2023-05-02T00:01:55;98634.09;;;13.96;77.61
13312;BME280;34033;48.672;9.376;2023-05-02T00:04:21;98630.06;;;13.97;77.97
13312;BME280;34033;48.672;9.376;2023-05-02T00:06:46;98630.47;;;13.96;77.80
13312;BME280;34033;48.672;9.376;2023-05-02T00:09:12;98635.28;;;13.99;77.64
13312;BME280;34033;48.672;9.376;2023-05-02T00:11:38;98631.28;;;13.96;77.53
13312;BME280;34033;48.672;9.376;2023-05-02T00:14:04;98627.66;;;13.96;76.90
13312;BME280;34033;48.672;9.376;2023-05-02T00:16:29;98629.31;;;13.93;77.23
13312;BME280;34033;48.672;9.376;2023-05-02T00:18:55;98628.91;;;13.91;77.14
13312;BME280;34033;48.672;9.376;2023-05-02T00:21:20;98628.50;;;13.86;77.11
13312;BME280;34033;48.672;9.376;2023-05-02T00:23:46;98627.72;;;13.85;77.62
13312;BME280;34033;48.672;9.376;2023-05-02T00:26:12;98638.94;;;13.85;78.67
13312;BME280;34033;48.672;9.376;2023-05-02T00:28:37;98632.53;;;13.85;77.89
13312;BME280;34033;48.672;9.376;2023-05-02T00:31:05;98634.94;;;13.86;77.89
13312;BME280;34033;48.672;9.376;2023-05-02T00:33:31;98632.13;;;13.86;77.16
13312;BME280;34033;48.672;9.376;2023-05-02T00:35:56;98631.72;;;13.84;76.93
13312;BME280;34033;48.672;9.376;2023-05-02T00:38:21;98629.34;;;13.79;76.34
13312;BME280;34033;48.672;9.376;2023-05-02T00:40:49;98631.78;;;13.77;76.85
13312;BME280;34033;48.672;9.376;2023-05-02T00:43:16;98623.34;;;13.73;77.00
13312;BME280;34033;48.672;9.376;2023-05-02T00:45:43;98633.38;;;13.74;77.02
13312;BME280;34033;48.672;9.376;2023-05-02T00:48:09;98630.56;;;13.74;76.63
13312;BME280;34033;48.672;9.376;2023-05-02T00:50:41;98630.19;;;13.72;76.21
13312;BME280;34033;48.672;9.376;2023-05-02T00:53:08;98630.59;;;13.71;76.04
13312;BME280;34033;48.672;9.376;2023-05-02T00:55:33;98635.81;;;13.69;76.17
13312;BME280;34033;48.672;9.376;2023-05-02T00:58:01;98641.81;;;13.67;75.69
13312;BME280;34033;48.672;9.376;2023-05-02T01:00:40;98634.63;;;13.66;74.86
13312;BME280;34033;48.672;9.376;2023-05-02T01:03:21;98637.44;;;13.63;75.29
13312;BME280;34033;48.672;9.376;2023-05-02T01:06:08;98642.25;;;13.59;75.53
13312;BME280;34033;48.672;9.376;2023-05-02T01:14:04;98645.13;;;13.45;74.60
13312;BME280;34033;48.672;9.376;2023-05-02T01:16:31;98638.69;;;13.41;75.32
13312;BME280;34033;48.672;9.376;2023-05-02T01:18:58;98651.56;;;13.27;75.38
13312;BME280;34033;48.672;9.376;2023-05-02T01:21:24;98653.59;;;13.16;76.25
13312;BME280;34033;48.672;9.376;2023-05-02T01:24:04;98658.41;;;13.16;75.83
13312;BME280;34033;48.672;9.376;2023-05-02T01:26:58;98661.59;;;13.14;75.32
13312;BME280;34033;48.672;9.376;2023-05-02T01:29:28;98655.97;;;13.14;75.58
13312;BME280;34033;48.672;9.376;2023-05-02T01:31:55;98659.19;;;13.16;75.65
13312;BME280;34033;48.672;9.376;2023-05-02T01:34:24;98658.41;;;13.16;76.36
13312;BME280;34033;48.672;9.376;2023-05-02T01:36:50;98655.19;;;13.17;75.94
13312;BME280;34033;48.672;9.376;2023-05-02T01:39:21;98663.59;;;13.21;75.68
13312;BME280;34033;48.672;9.376;2023-05-02T01:41:49;98667.22;;;13.21;76.01
13312;BME280;34033;48.672;9.376;2023-05-02T01:44:17;98665.59;;;13.20;75.70
13312;BME280;34033;48.672;9.376;2023-05-02T01:46:44;98670.00;;;13.18;75.55
13312;BME280;34033;48.672;9.376;2023-05-02T01:49:10;98670.44;;;13.16;75.20
13312;BME280;34033;48.672;9.376;2023-05-02T01:51:41;98676.44;;;13.15;75.87
13312;BME280;34033;48.672;9.376;2023-05-02T01:54:09;98667.22;;;13.14;76.05
13312;BME280;34033;48.672;9.376;2023-05-02T01:56:37;98666.00;;;13.15;75.66
13312;BME280;34033;48.672;9.376;2023-05-02T01:59:05;98673.63;;;13.15;75.67
13312;BME280;34033;48.672;9.376;2023-05-02T02:01:34;98678.03;;;13.16;75.70
13312;BME280;34033;48.672;9.376;2023-05-02T02:04:00;98668.41;;;13.13;75.44
13312;BME280;34033;48.672;9.376;2023-05-02T02:06:26;98675.22;;;13.12;75.59
13312;BME280;34033;48.672;9.376;2023-05-02T02:08:51;98668.41;;;13.13;75.50
13312;BME280;34033;48.672;9.376;2023-05-02T02:11:25;98667.59;;;13.09;75.56
13312;BME280;34033;48.672;9.376;2023-05-02T02:13:59;98676.41;;;13.08;76.46
13312;BME280;34033;48.672;9.376;2023-05-02T02:16:29;98670.78;;;13.04;76.68
13312;BME280;34033;48.672;9.376;2023-05-02T02:18:56;98677.59;;;13.03;76.11
13312;BME280;34033;48.672;9.376;2023-05-02T02:21:24;98678.81;;;12.99;76.42
13312;BME280;34033;48.672;9.376;2023-05-02T02:23:53;98686.44;;;12.98;76.60
13312;BME280;34033;48.672;9.376;2023-05-02T02:26:20;98671.59;;;12.94;77.29
13312;BME280;34033;48.672;9.376;2023-05-02T02:28:47;98688.03;;;12.92;78.11
13312;BME280;34033;48.672;9.376;2023-05-02T02:31:12;98696.06;;;12.90;77.51
13312;BME280;34033;48.672;9.376;2023-05-02T02:33:38;98692.03;;;12.91;76.79
13312;BME280;34033;48.672;9.376;2023-05-02T02:36:36;98694.44;;;12.89;76.45
13312;BME280;34033;48.672;9.376;2023-05-02T02:39:20;98699.66;;;12.87;76.11
13312;BME280;34033;48.672;9.376;2023-05-02T02:44:41;98712.47;;;12.77;76.93
13312;BME280;34033;48.672;9.376;2023-05-02T02:47:12;98721.69;;;12.67;76.69
13312;BME280;34033;48.672;9.376;2023-05-02T02:52:47;98725.25;;;12.61;76.82
13312;BME280;34033;48.672;9.376;2023-05-02T02:55:46;98719.25;;;12.66;77.00
13312;BME280;34033;48.672;9.376;2023-05-02T03:01:20;98720.50;;;12.79;76.26
13312;BME280;34033;48.672;9.376;2023-05-02T03:03:47;98724.88;;;12.80;76.68
13312;BME280;34033;48.672;9.376;2023-05-02T03:06:13;98724.09;;;12.83;76.51
13312;BME280;34033;48.672;9.376;2023-05-02T03:08:43;98727.72;;;12.94;80.45
13312;BME280;34033;48.672;9.376;2023-05-02T03:11:08;98733.72;;;13.07;79.71
13312;BME280;34033;48.672;9.376;2023-05-02T03:13:35;98736.97;;;13.05;77.17
13312;BME280;34033;48.672;9.376;2023-05-02T03:16:17;98745.78;;;13.04;75.99
13312;BME280;34033;48.672;9.376;2023-05-02T03:18:49;98742.97;;;13.00;74.71
13312;BME280;34033;48.672;9.376;2023-05-02T03:21:14;98751.38;;;12.93;74.10
13312;BME280;34033;48.672;9.376;2023-05-02T03:23:39;98762.97;;;12.81;73.45
13312;BME280;34033;48.672;9.376;2023-05-02T03:26:05;98750.53;;;12.68;73.65
13312;BME280;34033;48.672;9.376;2023-05-02T03:28:30;98760.53;;;12.69;73.41
13312;BME280;34033;48.672;9.376;2023-05-02T03:30:55;98756.91;;;12.61;74.68
13312;BME280;34033;48.672;9.376;2023-05-02T03:33:21;98763.34;;;12.62;74.59
13312;BME280;34033;48.672;9.376;2023-05-02T03:35:46;98762.09;;;12.56;74.45
13312;BME280;34033;48.672;9.376;2023-05-02T03:38:12;98768.91;;;12.54;73.79
13312;BME280;34033;48.672;9.376;2023-05-02T03:40:37;98768.91;;;12.51;74.18
13312;BME280;34033;48.672;9.376;2023-05-02T03:43:02;98776.91;;;12.52;74.17
13312;BME280;34033;48.672;9.376;2023-05-02T03:45:28;98780.94;;;12.55;74.98
13312;BME280;34033;48.672;9.376;2023-05-02T03:47:53;98787.34;;;12.56;74.60
13312;BME280;34033;48.672;9.376;2023-05-02T03:50:18;98784.91;;;12.43;73.89
13312;BME280;34033;48.672;9.376;2023-05-02T03:52:44;98792.81;;;12.24;75.06
13312;BME280;34033;48.672;9.376;2023-05-02T03:55:09;98797.91;;;12.00;76.29
13312;BME280;34033;48.672;9.376;2023-05-02T03:57:35;98795.97;;;13.44;100.00
13312;BME280;34033;48.672;9.376;2023-05-02T04:00:00;98794.41;;;14.87;89.82
13312;BME280;34033;48.672;9.376;2023-05-02T04:02:26;98790.06;;;15.85;79.14
13312;BME280;34033;48.672;9.376;2023-05-02T04:04:51;98798.97;;;15.80;71.57
13312;BME280;34033;48.672;9.376;2023-05-02T04:07:16;98797.69;;;15.33;68.46
13312;BME280;34033;48.672;9.376;2023-05-02T04:09:45;98800.03;;;14.87;69.12
13312;BME280;34033;48.672;9.376;2023-05-02T04:12:10;98797.00;;;14.46;68.94
13312;BME280;34033;48.672;9.376;2023-05-02T04:14:35;98796.69;;;14.15;69.52
13312;BME280;34033;48.672;9.376;2023-05-02T04:17:01;98805.16;;;13.87;69.65
13312;BME280;34033;48.672;9.376;2023-05-02T04:19:26;98814.41;;;13.66;70.04
13312;BME280;34033;48.672;9.376;2023-05-02T04:21:52;98815.63;;;13.48;71.44
13312;BME280;34033;48.672;9.376;2023-05-02T04:24:17;98818.81;;;13.35;72.45
13312;BME280;34033;48.672;9.376;2023-05-02T04:26:43;98824.44;;;13.28;72.80
13312;BME280;34033;48.672;9.376;2023-05-02T04:29:08;98827.22;;;13.25;72.65
13312;BME280;34033;48.672;9.376;2023-05-02T04:31:34;98823.63;;;13.17;73.48
13312;BME280;34033;48.672;9.376;2023-05-02T04:34:00;98827.63;;;13.16;74.28
13312;BME280;34033;48.672;9.376;2023-05-02T04:36:25;98837.19;;;13.08;74.46
13312;BME280;34033;48.672;9.376;2023-05-02T04:38:52;98834.78;;;13.03;74.47
13312;BME280;34033;48.672;9.376;2023-05-02T04:41:18;98838.78;;;12.95;74.94
13312;BME280;34033;48.672;9.376;2023-05-02T04:43:43;98832.31;;;12.84;75.36
13312;BME280;34033;48.672;9.376;2023-05-02T04:46:08;98842.72;;;12.73;75.86
13312;BME280;34033;48.672;9.376;2023-05-02T04:48:34;98849.03;;;12.56;77.49
13312;BME280;34033;48.672;9.376;2023-05-02T04:50:59;98847.00;;;12.45;78.31
13312;BME280;34033;48.672;9.376;2023-05-02T04:53:24;98844.91;;;12.35;78.38
13312;BME280;34033;48.672;9.376;2023-05-02T04:55:50;98851.34;;;12.36;78.90
13312;BME280;34033;48.672;9.376;2023-05-02T04:58:16;98844.91;;;12.35;79.01
13312;BME280;34033;48.672;9.376;2023-05-02T05:00:41;98846.47;;;12.26;79.19
13312;BME280;34033;48.672;9.376;2023-05-02T05:03:07;98842.47;;;12.23;79.38
13312;BME280;34033;48.672;9.376;2023-05-02T05:05:32;98848.91;;;12.27;79.21
13312;BME280;34033;48.672;9.376;2023-05-02T05:07:58;98854.34;;;12.02;79.80
13312;BME280;34033;48.672;9.376;2023-05-02T05:10:23;98850.78;;;12.05;80.95
13312;BME280;34033;48.672;9.376;2023-05-02T05:12:48;98851.69;;;12.27;80.80
13312;BME280;34033;48.672;9.376;2023-05-02T05:15:14;98853.81;;;12.44;80.93
13312;BME280;34033;48.672;9.376;2023-05-02T05:17:40;98864.25;;;12.54;79.73
13312;BME280;34033;48.672;9.376;2023-05-02T05:20:06;98861.88;;;12.64;78.63
13312;BME280;34033;48.672;9.376;2023-05-02T05:22:42;98861.50;;;12.62;79.05
13312;BME280;34033;48.672;9.376;2023-05-02T05:25:08;98868.72;;;12.66;78.42
13312;BME280;34033;48.672;9.376;2023-05-02T05:27:34;98870.78;;;12.80;78.15
13312;BME280;34033;48.672;9.376;2023-05-02T05:30:00;98868.38;;;12.82;77.77
13312;BME280;34033;48.672;9.376;2023-05-02T05:32:25;98873.63;;;12.87;78.21
13312;BME280;34033;48.672;9.376;2023-05-02T05:34:54;98875.22;;;12.88;78.30
13312;BME280;34033;48.672;9.376;2023-05-02T05:37:19;98875.22;;;12.91;77.82
13312;BME280;34033;48.672;9.376;2023-05-02T05:39:45;98886.47;;;12.99;77.23
13312;BME280;34033;48.672;9.376;2023-05-02T05:42:11;98890.03;;;12.85;76.97
13312;BME280;34033;48.672;9.376;2023-05-02T05:44:37;98888.44;;;12.84;78.81
13312;BME280;34033;48.672;9.376;2023-05-02T05:47:02;98894.88;;;12.91;78.68
13312;BME280;34033;48.672;9.376;2023-05-02T05:49:28;98898.47;;;12.92;77.35
13312;BME280;34033;48.672;9.376;2023-05-02T05:51:53;98904.28;;;12.51;78.95
13312;BME280;34033;48.672;9.376;2023-05-02T05:54:19;98919.84;;;12.38;79.72
13312;BME280;34033;48.672;9.376;2023-05-02T05:56:44;98912.31;;;12.49;80.80
13312;BME280;34033;48.672;9.376;2023-05-02T05:59:10;98914.03;;;12.72;80.90
13312;BME280;34033;48.672;9.376;2023-05-02T06:01:35;98914.50;;;12.84;79.84
13312;BME280;34033;48.672;9.376;2023-05-02T06:04:02;98916.50;;;12.87;78.42
13312;BME280;34033;48.672;9.376;2023-05-02T06:06:29;98922.97;;;12.95;78.22
13312;BME280;34033;48.672;9.376;2023-05-02T06:08:56;98922.59;;;13.07;78.63
13312;BME280;34033;48.672;9.376;2023-05-02T06:11:21;98926.28;;;13.22;77.36
13312;BME280;34033;48.672;9.376;2023-05-02T06:13:48;98928.75;;;13.34;77.41
13312;BME280;34033;48.672;9.376;2023-05-02T06:16:15;98931.19;;;13.50;76.95
13312;BME280;34033;48.672;9.376;2023-05-02T06:18:40;98933.22;;;13.60;77.09
13312;BME280;34033;48.672;9.376;2023-05-02T06:21:05;98936.41;;;13.65;76.43
13312;BME280;34033;48.672;9.376;2023-05-02T06:23:31;98940.84;;;13.70;75.66
13312;BME280;34033;48.672;9.376;2023-05-02T06:26:01;98943.66;;;13.81;75.92
13312;BME280;34033;48.672;9.376;2023-05-02T06:28:27;98951.31;;;13.87;75.92
13312;BME280;34033;48.672;9.376;2023-05-02T06:31:02;98952.13;;;13.98;75.83
13312;BME280;34033;48.672;9.376;2023-05-02T06:33:29;98948.91;;;14.03;75.06
13312;BME280;34033;48.672;9.376;2023-05-02T06:35:55;98952.91;;;14.02;74.21
13312;BME280;34033;48.672;9.376;2023-05-02T06:38:20;98955.31;;;14.07;74.62
13312;BME280;34033;48.672;9.376;2023-05-02T06:40:46;98963.34;;;14.12;74.60
13312;BME280;34033;48.672;9.376;2023-05-02T06:43:12;98964.16;;;14.09;73.77
13312;BME280;34033;48.672;9.376;2023-05-02T06:45:38;98967.34;;;14.11;74.29
13312;BME280;34033;48.672;9.376;2023-05-02T06:48:04;98974.19;;;14.17;74.72
13312;BME280;34033;48.672;9.376;2023-05-02T06:50:29;98973.38;;;14.17;74.20
13312;BME280;34033;48.672;9.376;2023-05-02T06:52:54;98970.16;;;14.11;74.07
13312;BME280;34033;48.672;9.376;2023-05-02T06:55:20;98973.41;;;14.13;74.52
13312;BME280;34033;48.672;9.376;2023-05-02T06:57:47;98979.44;;;14.15;74.60
13312;BME280;34033;48.672;9.376;2023-05-02T07:00:15;98977.41;;;14.19;74.75
13312;BME280;34033;48.672;9.376;2023-05-02T07:02:40;98984.22;;;14.18;74.74
13312;BME280;34033;48.672;9.376;2023-05-02T07:05:06;98989.06;;;14.22;74.84
13312;BME280;34033;48.672;9.376;2023-05-02T07:07:31;98990.28;;;14.20;74.71
13312;BME280;34033;48.672;9.376;2023-05-02T07:09:57;98987.47;;;14.28;74.51
13312;BME280;34033;48.672;9.376;2023-05-02T07:12:22;98986.25;;;14.29;73.86
13312;BME280;34033;48.672;9.376;2023-05-02T07:14:47;98988.66;;;14.30;74.29
13312;BME280;34033;48.672;9.376;2023-05-02T07:17:13;98988.31;;;14.39;74.08
13312;BME280;34033;48.672;9.376;2023-05-02T07:19:38;98992.31;;;14.41;74.44
13312;BME280;34033;48.672;9.376;2023-05-02T07:22:04;98984.66;;;14.56;73.82
13312;BME280;34033;48.672;9.376;2023-05-02T07:24:30;98990.66;;;14.69;73.12
13312;BME280;34033;48.672;9.376;2023-05-02T07:26:56;98997.50;;;14.64;72.87
13312;BME280;34033;48.672;9.376;2023-05-02T07:29:21;98997.91;;;14.66;72.97
13312;BME280;34033;48.672;9.376;2023-05-02T07:31:46;98999.09;;;14.61;73.21
13312;BME280;34033;48.672;9.376;2023-05-02T07:34:12;98998.72;;;14.63;72.43
13312;BME280;34033;48.672;9.376;2023-05-02T07:36:37;98999.53;;;14.53;72.53
13312;BME280;34033;48.672;9.376;2023-05-02T07:39:03;99004.75;;;14.54;73.00
13312;BME280;34033;48.672;9.376;2023-05-02T07:41:28;98996.31;;;14.54;73.08
13312;BME280;34033;48.672;9.376;2023-05-02T07:43:53;99000.72;;;14.66;73.61
13312;BME280;34033;48.672;9.376;2023-05-02T07:46:19;99008.34;;;14.69;72.79
13312;BME280;34033;48.672;9.376;2023-05-02T07:48:44;99005.94;;;14.68;72.49
13312;BME280;34033;48.672;9.376;2023-05-02T07:51:10;99001.13;;;14.72;72.59
13312;BME280;34033;48.672;9.376;2023-05-02T07:53:35;99010.75;;;14.67;73.06
13312;BME280;34033;48.672;9.376;2023-05-02T07:56:04;99015.59;;;14.70;72.80
13312;BME280;34033;48.672;9.376;2023-05-02T07:58:35;99017.16;;;14.78;72.53
13312;BME280;34033;48.672;9.376;2023-05-02T08:01:01;99017.16;;;14.92;71.69
13312;BME280;34033;48.672;9.376;2023-05-02T08:03:28;99015.97;;;14.93;70.75
13312;BME280;34033;48.672;9.376;2023-05-02T08:05:53;99013.91;;;15.05;70.90
13312;BME280;34033;48.672;9.376;2023-05-02T08:08:19;99009.84;;;15.13;70.45
13312;BME280;34033;48.672;9.376;2023-05-02T08:10:44;99006.19;;;15.23;70.31
13312;BME280;34033;48.672;9.376;2023-05-02T08:13:10;99008.97;;;15.37;70.26
13312;BME280;34033;48.672;9.376;2023-05-02T08:15:36;99016.22;;;15.38;69.50
13312;BME280;34033;48.672;9.376;2023-05-02T08:18:01;99015.34;;;15.55;69.23
13312;BME280;34033;48.672;9.376;2023-05-02T08:20:26;99013.69;;;15.61;68.94
13312;BME280;34033;48.672;9.376;2023-05-02T08:22:52;99018.09;;;15.69;68.19
13312;BME280;34033;48.672;9.376;2023-05-02T08:25:17;99026.94;;;15.75;67.88
13312;BME280;34033;48.672;9.376;2023-05-02T08:27:42;99028.16;;;15.70;66.42
13312;BME280;34033;48.672;9.376;2023-05-02T08:30:08;99034.19;;;15.72;66.04
13312;BME280;34033;48.672;9.376;2023-05-02T08:32:35;99036.19;;;15.72;65.56
13312;BME280;34033;48.672;9.376;2023-05-02T08:35:00;99032.63;;;15.64;67.14
13312;BME280;34033;48.672;9.376;2023-05-02T08:37:26;99044.78;;;15.43;66.71
13312;BME280;34033;48.672;9.376;2023-05-02T08:39:52;99046.31;;;15.62;67.09
13312;BME280;34033;48.672;9.376;2023-05-02T08:42:17;99039.50;;;15.56;66.59
13312;BME280;34033;48.672;9.376;2023-05-02T08:44:45;99040.28;;;15.50;66.21
13312;BME280;34033;48.672;9.376;2023-05-02T08:47:12;99044.69;;;15.61;66.12
13312;BME280;34033;48.672;9.376;2023-05-02T08:49:38;99046.66;;;15.71;67.12
13312;BME280;34033;48.672;9.376;2023-05-02T08:52:07;99050.72;;;15.70;65.32
13312;BME280;34033;48.672;9.376;2023-05-02T08:54:36;99042.69;;;15.62;65.46
13312;BME280;34033;48.672;9.376;2023-05-02T08:57:02;99049.94;;;15.63;65.12
13312;BME280;34033;48.672;9.376;2023-05-02T08:59:28;99048.72;;;15.71;64.81
13312;BME280;34033;48.672;9.376;2023-05-02T09:01:58;99057.94;;;15.71;65.31
13312;BME280;34033;48.672;9.376;2023-05-02T09:04:29;99054.28;;;15.81;64.54
13312;BME280;34033;48.672;9.376;2023-05-02T09:06:55;99056.69;;;15.87;64.05
13312;BME280;34033;48.672;9.376;2023-05-02T09:09:21;99055.38;;;16.02;65.00
13312;BME280;34033;48.672;9.376;2023-05-02T09:11:48;99064.13;;;16.18;63.71
13312;BME280;34033;48.672;9.376;2023-05-02T09:14:15;99064.41;;;16.34;63.41
13312;BME280;34033;48.672;9.376;2023-05-02T09:16:41;99053.41;;;16.54;63.08
13312;BME280;34033;48.672;9.376;2023-05-02T09:19:07;99065.34;;;16.72;61.40
13312;BME280;34033;48.672;9.376;2023-05-02T09:21:39;99057.94;;;16.89;61.09
13312;BME280;34033;48.672;9.376;2023-05-02T09:24:16;99067.16;;;16.93;60.97
13312;BME280;34033;48.672;9.376;2023-05-02T09:26:42;99059.84;;;16.99;60.85
13312;BME280;34033;48.672;9.376;2023-05-02T09:29:09;99063.31;;;17.17;60.68
13312;BME280;34033;48.672;9.376;2023-05-02T09:31:35;99059.09;;;17.32;61.04
13312;BME280;34033;48.672;9.376;2023-05-02T09:34:11;99056.41;;;17.56;59.65
13312;BME280;34033;48.672;9.376;2023-05-02T09:36:41;99049.84;;;17.66;58.65
13312;BME280;34033;48.672;9.376;2023-05-02T09:39:13;99056.47;;;17.86;58.61
13312;BME280;34033;48.672;9.376;2023-05-02T09:41:40;99063.69;;;17.87;57.64
13312;BME280;34033;48.672;9.376;2023-05-02T09:44:09;99050.22;;;17.98;57.31
13312;BME280;34033;48.672;9.376;2023-05-02T09:46:39;99054.13;;;18.08;56.97
13312;BME280;34033;48.672;9.376;2023-05-02T09:49:05;99061.66;;;17.91;55.68
13312;BME280;34033;48.672;9.376;2023-05-02T09:51:31;99066.53;;;17.87;54.91
13312;BME280;34033;48.672;9.376;2023-05-02T09:53:56;99062.81;;;17.93;55.82
13312;BME280;34033;48.672;9.376;2023-05-02T09:56:22;99056.19;;;18.04;56.06
13312;BME280;34033;48.672;9.376;2023-05-02T09:58:47;99055.69;;;18.12;56.03
13312;BME280;34033;48.672;9.376;2023-05-02T10:01:17;99056.53;;;18.09;56.31
13312;BME280;34033;48.672;9.376;2023-05-02T10:03:46;99052.44;;;18.14;56.07
13312;BME280;34033;48.672;9.376;2023-05-02T10:06:12;99052.31;;;18.21;55.92
13312;BME280;34033;48.672;9.376;2023-05-02T10:08:38;99058.84;;;18.18;56.66
13312;BME280;34033;48.672;9.376;2023-05-02T10:11:06;99053.19;;;18.18;56.71
13312;BME280;34033;48.672;9.376;2023-05-02T10:13:33;99049.22;;;18.12;56.43
13312;BME280;34033;48.672;9.376;2023-05-02T10:16:03;99050.53;;;18.04;56.97
13312;BME280;34033;48.672;9.376;2023-05-02T10:18:38;99052.69;;;17.96;55.98
13312;BME280;34033;48.672;9.376;2023-05-02T10:21:07;99049.41;;;17.98;56.73
13312;BME280;34033;48.672;9.376;2023-05-02T10:23:33;99056.00;;;17.91;57.11
13312;BME280;34033;48.672;9.376;2023-05-02T10:25:59;99051.72;;;18.06;56.18
13312;BME280;34033;48.672;9.376;2023-05-02T10:28:28;99057.97;;;18.21;56.59
13312;BME280;34033;48.672;9.376;2023-05-02T10:30:54;99052.03;;;18.39;55.01
13312;BME280;34033;48.672;9.376;2023-05-02T10:33:21;99053.53;;;18.47;54.14
13312;BME280;34033;48.672;9.376;2023-05-02T10:35:47;99051.00;;;18.79;54.42
13312;BME280;34033;48.672;9.376;2023-05-02T10:38:18;99048.63;;;19.21;54.56
13312;BME280;34033;48.672;9.376;2023-05-02T10:40:53;99053.03;;;19.45;53.58
13312;BME280;34033;48.672;9.376;2023-05-02T10:43:22;99045.38;;;19.42;52.07
13312;BME280;34033;48.672;9.376;2023-05-02T10:45:49;99048.53;;;19.24;51.60
13312;BME280;34033;48.672;9.376;2023-05-02T10:48:22;99041.09;;;19.34;50.20
13312;BME280;34033;48.672;9.376;2023-05-02T10:50:56;99040.81;;;19.48;50.08
13312;BME280;34033;48.672;9.376;2023-05-02T10:58:31;99037.56;;;19.49;49.90
13312;BME280;34033;48.672;9.376;2023-05-02T11:04:20;99039.75;;;19.18;50.00
13312;BME280;34033;48.672;9.376;2023-05-02T11:11:46;99025.41;;;19.49;51.67
13312;BME280;34033;48.672;9.376;2023-05-02T11:19:25;99025.06;;;20.19;49.13
13312;BME280;34033;48.672;9.376;2023-05-02T11:21:51;99013.03;;;20.31;49.59
13312;BME280;34033;48.672;9.376;2023-05-02T11:24:43;99015.97;;;20.27;48.47
13312;BME280;34033;48.672;9.376;2023-05-02T11:30:09;99020.47;;;20.25;48.30
13312;BME280;34033;48.672;9.376;2023-05-02T11:35:17;99015.91;;;19.95;49.08
13312;BME280;34033;48.672;9.376;2023-05-02T11:37:52;99015.63;;;19.89;49.13
13312;BME280;34033;48.672;9.376;2023-05-02T11:40:17;99013.25;;;20.04;47.88
13312;BME280;34033;48.672;9.376;2023-05-02T11:42:43;99012.66;;;20.29;46.93
13312;BME280;34033;48.672;9.376;2023-05-02T11:45:08;99009.63;;;20.56;47.59
13312;BME280;34033;48.672;9.376;2023-05-02T11:47:34;99002.75;;;20.69;46.41
13312;BME280;34033;48.672;9.376;2023-05-02T11:50:03;99004.72;;;20.72;46.50
13312;BME280;34033;48.672;9.376;2023-05-02T11:52:29;99005.00;;;20.78;46.32
13312;BME280;34033;48.672;9.376;2023-05-02T11:54:54;98999.50;;;20.71;46.25
13312;BME280;34033;48.672;9.376;2023-05-02T11:57:21;98998.84;;;20.63;45.75
13312;BME280;34033;48.672;9.376;2023-05-02T11:59:51;99009.78;;;20.32;44.80
13312;BME280;34033;48.672;9.376;2023-05-02T12:02:17;99000.59;;;20.25;45.01
13312;BME280;34033;48.672;9.376;2023-05-02T12:04:43;99006.84;;;20.36;45.04
13312;BME280;34033;48.672;9.376;2023-05-02T12:07:09;99003.03;;;20.59;44.31
13312;BME280;34033;48.672;9.376;2023-05-02T12:09:34;99002.75;;;20.69;44.19
13312;BME280;34033;48.672;9.376;2023-05-02T12:11:59;99001.34;;;20.77;42.89
13312;BME280;34033;48.672;9.376;2023-05-02T12:14:29;98997.00;;;20.73;43.42
13312;BME280;34033;48.672;9.376;2023-05-02T12:16:57;99000.91;;;20.47;44.41
13312;BME280;34033;48.672;9.376;2023-05-02T12:19:23;99002.09;;;20.29;43.15
13312;BME280;34033;48.672;9.376;2023-05-02T12:21:49;98997.25;;;20.46;43.53
13312;BME280;34033;48.672;9.376;2023-05-02T12:24:15;98994.97;;;20.57;43.93
13312;BME280;34033;48.672;9.376;2023-05-02T12:26:40;98996.91;;;20.76;44.69
13312;BME280;34033;48.672;9.376;2023-05-02T12:29:06;98991.22;;;20.76;43.89
13312;BME280;34033;48.672;9.376;2023-05-02T12:31:32;98992.47;;;20.75;43.85
13312;BME280;34033;48.672;9.376;2023-05-02T12:33:58;98988.13;;;20.55;43.43
13312;BME280;34033;48.672;9.376;2023-05-02T12:36:26;98995.03;;;20.21;43.43
13312;BME280;34033;48.672;9.376;2023-05-02T12:38:55;98989.22;;;20.45;44.57
13312;BME280;34033;48.672;9.376;2023-05-02T12:41:49;98994.44;;;20.46;44.52
13312;BME280;34033;48.672;9.376;2023-05-02T12:44:15;99001.44;;;20.42;43.02
13312;BME280;34033;48.672;9.376;2023-05-02T12:46:57;99000.84;;;20.14;42.63
13312;BME280;34033;48.672;9.376;2023-05-02T12:49:22;98995.53;;;20.16;43.82
13312;BME280;34033;48.672;9.376;2023-05-02T12:51:52;98989.69;;;20.23;43.47
13312;BME280;34033;48.672;9.376;2023-05-02T12:54:20;98993.72;;;20.42;44.97
13312;BME280;34033;48.672;9.376;2023-05-02T12:56:45;99004.38;;;20.38;43.81
13312;BME280;34033;48.672;9.376;2023-05-02T12:59:25;98996.19;;;20.40;42.60
13312;BME280;34033;48.672;9.376;2023-05-02T13:01:51;99007.19;;;20.22;42.18
13312;BME280;34033;48.672;9.376;2023-05-02T13:04:16;99001.63;;;19.98;43.33
13312;BME280;34033;48.672;9.376;2023-05-02T13:06:41;99008.03;;;20.03;43.74
13312;BME280;34033;48.672;9.376;2023-05-02T13:09:07;99000.78;;;19.82;43.41
13312;BME280;34033;48.672;9.376;2023-05-02T13:11:32;99014.34;;;19.54;44.81
13312;BME280;34033;48.672;9.376;2023-05-02T13:13:58;99013.19;;;19.52;46.38
13312;BME280;34033;48.672;9.376;2023-05-02T13:16:25;99013.84;;;19.40;46.43
13312;BME280;34033;48.672;9.376;2023-05-02T13:18:50;99013.03;;;19.59;46.07
13312;BME280;34033;48.672;9.376;2023-05-02T13:21:16;99018.94;;;19.68;45.27
13312;BME280;34033;48.672;9.376;2023-05-02T13:23:41;99007.28;;;19.82;45.50
13312;BME280;34033;48.672;9.376;2023-05-02T13:26:08;99011.97;;;20.25;45.21
13312;BME280;34033;48.672;9.376;2023-05-02T13:28:33;99011.63;;;20.23;44.23
13312;BME280;34033;48.672;9.376;2023-05-02T13:31:01;99016.53;;;20.38;45.07
13312;BME280;34033;48.672;9.376;2023-05-02T13:33:26;99008.34;;;20.57;45.00
13312;BME280;34033;48.672;9.376;2023-05-02T13:35:52;99002.41;;;20.51;43.93
13312;BME280;34033;48.672;9.376;2023-05-02T13:38:17;99000.19;;;20.43;42.60
13312;BME280;34033;48.672;9.376;2023-05-02T13:40:42;99006.22;;;20.28;42.50